Time;durP1;ratioP1;P1;durP2;ratioP2;P2;SDS_P1;SDS_P2;PMS_P1;PMS_P2;Temp;Humidity;BMP_temperature;BMP_pressure;BME280_temperature;BME280_humidity;BME280_pressure;Samples;Min_cycle;Max_cycle;Signal;HPM_P1;HPM_P2
2021/01/31 00:00:46;;;;;;;12.30;6.07;;;3.70;99.70;;;;;;4973610;28;20995;-70
2021/01/31 00:03:16;;;;;;;8.70;5.53;;;3.90;99.70;;;;;;4974008;28;20475;-70
2021/01/31 00:05:44;;;;;;;9.80;5.53;;;3.80;99.70;;;;;;4973976;28;20829;-70
2021/01/31 00:08:12;;;;;;;9.40;5.23;;;3.80;99.70;;;;;;4973479;28;20447;-70
2021/01/31 00:10:39;;;;;;;9.40;5.20;;;3.70;99.70;;;;;;4973836;28;20483;-70
2021/01/31 00:13:07;;;;;;;8.87;5.20;;;3.70;99.70;;;;;;4972788;28;20852;-72
2021/01/31 00:15:36;;;;;;;9.63;5.30;;;3.60;99.70;;;;;;4973802;28;20443;-70
2021/01/31 00:18:03;;;;;;;9.93;5.50;;;3.70;99.70;;;;;;4973481;28;20447;-71
2021/01/31 00:20:31;;;;;;;9.30;5.50;;;3.70;99.70;;;;;;4973660;28;20950;-70
2021/01/31 00:22:58;;;;;;;10.90;6.10;;;3.70;99.70;;;;;;4973853;28;20451;-71
2021/01/31 00:25:24;;;;;;;11.80;6.20;;;3.70;99.70;;;;;;4973842;28;20447;-71
2021/01/31 00:27:52;;;;;;;11.70;6.43;;;3.60;99.70;;;;;;4973480;28;20561;-71
2021/01/31 00:30:21;;;;;;;11.40;6.40;;;3.60;99.70;;;;;;4996562;23;20756;-68
2021/01/31 00:32:48;;;;;;;11.30;6.40;;;3.60;99.70;;;;;;4973535;28;20815;-69
2021/01/31 00:35:15;;;;;;;11.87;6.27;;;3.60;99.70;;;;;;4973460;28;20447;-69
2021/01/31 00:37:42;;;;;;;11.73;6.37;;;3.60;99.70;;;;;;4972644;28;20454;-69
2021/01/31 00:40:09;;;;;;;13.27;6.73;;;3.50;99.70;;;;;;4971219;28;20463;-68
2021/01/31 00:42:35;;;;;;;13.30;6.90;;;3.50;99.70;;;;;;4973120;28;20945;-69
2021/01/31 00:45:05;;;;;;;13.27;6.83;;;3.40;99.70;;;;;;4973170;28;20447;-68
2021/01/31 00:47:31;;;;;;;12.73;6.77;;;3.50;99.70;;;;;;4972206;28;20450;-69
2021/01/31 00:49:57;;;;;;;12.10;6.83;;;3.50;99.70;;;;;;4972903;28;20495;-69
2021/01/31 00:52:23;;;;;;;12.53;6.70;;;3.40;99.70;;;;;;4972904;28;20506;-69
2021/01/31 00:54:50;;;;;;;12.87;6.90;;;3.40;99.70;;;;;;4973131;28;20822;-69
2021/01/31 00:57:16;;;;;;;12.87;7.00;;;3.40;99.70;;;;;;4972134;28;20451;-69
2021/01/31 00:59:43;;;;;;;12.00;6.83;;;3.40;99.70;;;;;;4973054;28;20443;-69
2021/01/31 01:02:14;;;;;;;11.17;6.90;;;3.40;99.70;;;;;;4972914;28;20462;-69
2021/01/31 01:04:43;;;;;;;13.10;7.13;;;3.70;99.70;;;;;;4972984;28;20443;-69
2021/01/31 01:07:09;;;;;;;11.13;6.43;;;3.60;99.70;;;;;;4971969;28;20536;-69
2021/01/31 01:09:35;;;;;;;11.00;6.23;;;3.50;99.70;;;;;;4972684;28;20863;-70
2021/01/31 01:12:01;;;;;;;11.63;6.20;;;3.50;99.70;;;;;;4972643;28;20478;-69
2021/01/31 01:14:30;;;;;;;12.63;7.00;;;3.40;99.70;;;;;;4972688;28;20459;-69
2021/01/31 01:16:57;;;;;;;12.47;6.53;;;3.30;99.70;;;;;;4971657;28;20458;-69
2021/01/31 01:19:23;;;;;;;13.53;7.40;;;3.30;99.70;;;;;;4972539;28;20841;-69
2021/01/31 01:21:50;;;;;;;12.30;6.57;;;3.30;99.70;;;;;;4972366;28;20475;-69
2021/01/31 01:24:16;;;;;;;11.83;6.60;;;3.40;99.70;;;;;;4972162;28;20458;-69
2021/01/31 01:26:42;;;;;;;12.10;6.57;;;3.40;99.70;;;;;;4971778;28;20455;-68
2021/01/31 01:29:09;;;;;;;12.10;6.80;;;3.40;99.70;;;;;;4972024;28;20455;-69
2021/01/31 01:31:35;;;;;;;13.60;6.57;;;3.40;99.70;;;;;;4972232;28;20483;-69
2021/01/31 01:34:01;;;;;;;11.83;6.77;;;3.30;99.70;;;;;;4972337;28;20952;-69
2021/01/31 01:36:28;;;;;;;13.77;7.17;;;3.30;99.70;;;;;;4972170;28;20459;-69
2021/01/31 01:38:54;;;;;;;13.10;7.10;;;3.30;99.70;;;;;;4971151;28;20458;-69
2021/01/31 01:41:20;;;;;;;13.90;7.60;;;3.20;99.70;;;;;;4969979;28;20489;-69
2021/01/31 01:43:50;;;;;;;13.30;6.77;;;3.20;99.70;;;;;;4972148;28;20452;-69
2021/01/31 01:46:34;;;;;;;15.37;7.23;;;3.20;99.70;;;;;;4972152;28;20513;-69
2021/01/31 01:49:05;;;;;;;11.80;6.40;;;3.30;99.70;;;;;;4970982;28;20878;-70
2021/01/31 01:51:37;;;;;;;13.10;6.77;;;3.30;99.70;;;;;;4971957;28;20474;-69
2021/01/31 01:54:06;;;;;;;12.40;6.83;;;3.20;99.70;;;;;;4971994;28;20816;-69
2021/01/31 01:56:37;;;;;;;13.03;7.30;;;3.20;99.70;;;;;;4971839;28;20529;-69
2021/01/31 01:59:04;;;;;;;14.30;7.00;;;3.10;99.70;;;;;;4971128;28;20455;-69
2021/01/31 02:01:32;;;;;;;14.27;7.20;;;3.20;99.70;;;;;;4971714;28;20463;-69
2021/01/31 02:04:00;;;;;;;14.03;7.27;;;3.20;99.70;;;;;;4971725;28;20514;-69
2021/01/31 02:06:28;;;;;;;12.90;7.50;;;3.10;99.70;;;;;;4971745;28;20447;-70
2021/01/31 02:08:59;;;;;;;14.20;7.23;;;3.40;99.70;;;;;;4970829;28;20458;-69
2021/01/31 02:11:26;;;;;;;13.10;7.20;;;3.20;99.70;;;;;;4971601;28;20505;-69
2021/01/31 02:13:56;;;;;;;14.80;7.20;;;3.30;99.70;;;;;;4971627;28;20467;-70
2021/01/31 02:16:28;;;;;;;15.53;7.37;;;3.20;99.70;;;;;;4971603;28;20971;-69
2021/01/31 02:19:06;;;;;;;14.27;7.80;;;3.20;99.70;;;;;;4970926;28;20463;-69
2021/01/31 02:21:57;;;;;;;15.03;7.27;;;3.20;99.70;;;;;;4971548;28;20994;-69
2021/01/31 02:24:44;;;;;;;15.73;7.93;;;3.20;99.70;;;;;;4971698;28;20443;-70
2021/01/31 02:27:35;;;;;;;15.57;7.13;;;3.20;99.70;;;;;;4970565;28;20470;-69
2021/01/31 02:30:34;;;;;;;16.60;8.00;;;3.30;99.70;;;;;;4971340;28;20493;-70
2021/01/31 02:33:37;;;;;;;16.30;8.00;;;3.20;99.70;;;;;;4971355;28;20933;-69
2021/01/31 02:36:09;;;;;;;15.17;7.77;;;3.10;99.70;;;;;;4971480;28;20446;-69
2021/01/31 02:38:44;;;;;;;14.53;7.93;;;3.30;99.70;;;;;;4974494;28;20451;-70
2021/01/31 02:41:17;;;;;;;15.50;7.60;;;3.40;99.70;;;;;;4973220;28;20470;-69
2021/01/31 02:43:48;;;;;;;14.93;7.77;;;3.50;99.70;;;;;;4975348;28;20530;-69
2021/01/31 02:46:22;;;;;;;13.73;6.87;;;3.40;99.70;;;;;;4975274;28;20459;-70
2021/01/31 02:48:54;;;;;;;14.40;7.57;;;3.20;99.70;;;;;;4974586;28;20819;-70
2021/01/31 02:51:25;;;;;;;13.43;7.37;;;3.30;99.70;;;;;;4975194;28;20483;-70
2021/01/31 02:53:58;;;;;;;17.93;7.90;;;3.20;99.70;;;;;;4975354;28;20439;-70
2021/01/31 02:56:31;;;;;;;16.70;7.67;;;3.10;99.70;;;;;;4975117;28;20443;-70
2021/01/31 02:59:03;;;;;;;16.37;7.70;;;3.10;99.70;;;;;;4974123;28;20936;-69
2021/01/31 03:01:35;;;;;;;15.50;7.77;;;3.00;99.70;;;;;;4975078;28;20473;-70
2021/01/31 03:04:05;;;;;;;19.40;8.30;;;3.10;99.70;;;;;;4975209;28;20917;-69
2021/01/31 03:06:39;;;;;;;18.20;8.53;;;3.00;99.70;;;;;;4975249;28;20831;-69
2021/01/31 03:09:12;;;;;;;21.10;9.13;;;2.90;99.70;;;;;;4974107;28;20470;-69
2021/01/31 03:11:42;;;;;;;18.10;8.60;;;3.10;99.70;;;;;;4974849;28;20478;-69
2021/01/31 03:14:14;;;;;;;18.80;8.83;;;3.00;99.70;;;;;;4974854;28;20944;-69
2021/01/31 03:16:45;;;;;;;21.07;9.43;;;3.00;99.70;;;;;;4974609;28;20960;-69
2021/01/31 03:19:15;;;;;;;18.83;9.37;;;3.00;99.70;;;;;;4974782;28;20443;-69
2021/01/31 03:21:48;;;;;;;19.53;9.50;;;3.00;99.70;;;;;;4974832;28;20470;-70
2021/01/31 03:24:20;;;;;;;18.43;8.87;;;2.80;99.70;;;;;;4974652;28;20475;-70
2021/01/31 03:26:50;;;;;;;16.77;8.33;;;2.80;99.70;;;;;;4973755;28;20544;-68
2021/01/31 03:29:17;;;;;;;17.10;8.57;;;2.80;99.70;;;;;;4974466;28;20906;-70
2021/01/31 03:31:48;;;;;;;16.90;8.60;;;2.80;99.70;;;;;;4974238;28;20478;-70
2021/01/31 03:34:18;;;;;;;17.03;8.53;;;2.80;99.70;;;;;;4974609;28;20457;-70
2021/01/31 03:36:50;;;;;;;18.40;8.80;;;2.80;99.70;;;;;;4973830;28;20517;-69
2021/01/31 03:39:17;;;;;;;15.40;8.20;;;2.80;99.70;;;;;;4972284;28;20450;-69
2021/01/31 03:41:44;;;;;;;17.70;8.67;;;2.80;99.70;;;;;;4974282;28;20467;-69
2021/01/31 03:44:10;;;;;;;21.67;9.60;;;2.80;99.70;;;;;;4974339;28;20476;-70
2021/01/31 03:46:41;;;;;;;18.23;9.00;;;2.90;99.70;;;;;;4974079;28;20462;-70
2021/01/31 03:49:11;;;;;;;16.83;8.40;;;2.80;99.70;;;;;;4973530;28;20451;-69
2021/01/31 03:51:38;;;;;;;18.53;8.67;;;2.70;99.70;;;;;;4974424;28;20463;-70
2021/01/31 03:54:06;;;;;;;19.00;9.07;;;2.70;99.70;;;;;;4974067;28;20505;-69
2021/01/31 03:56:37;;;;;;;18.27;9.03;;;2.70;99.70;;;;;;4974124;28;20455;-69
2021/01/31 03:59:06;;;;;;;17.53;8.40;;;2.70;99.70;;;;;;4973385;28;20458;-70
2021/01/31 04:01:37;;;;;;;17.90;9.13;;;2.70;99.70;;;;;;4973794;28;20471;-69
2021/01/31 04:04:11;;;;;;;18.60;9.10;;;2.70;99.70;;;;;;4973944;28;20940;-69
2021/01/31 04:06:38;;;;;;;17.73;8.80;;;2.70;99.70;;;;;;4973823;28;20454;-69
2021/01/31 04:09:08;;;;;;;18.70;8.90;;;2.60;99.70;;;;;;4973047;28;20447;-69
2021/01/31 04:11:37;;;;;;;20.57;9.80;;;2.60;99.70;;;;;;4973614;28;20469;-70
2021/01/31 04:14:10;;;;;;;17.43;8.40;;;2.70;99.70;;;;;;4973674;28;20435;-69
2021/01/31 04:16:42;;;;;;;18.10;8.57;;;2.80;99.70;;;;;;4973551;28;20447;-69
2021/01/31 04:19:08;;;;;;;18.20;9.03;;;2.80;99.70;;;;;;4973412;28;20865;-70
2021/01/31 04:21:34;;;;;;;18.97;9.03;;;2.80;99.70;;;;;;4973574;28;20468;-69
2021/01/31 04:24:00;;;;;;;20.20;10.57;;;2.90;99.70;;;;;;4973471;28;20443;-69
2021/01/31 04:26:27;;;;;;;18.30;8.70;;;2.80;99.70;;;;;;4973481;28;20474;-69
2021/01/31 04:28:54;;;;;;;19.50;9.50;;;3.00;99.70;;;;;;4972529;28;20564;-69
2021/01/31 04:31:20;;;;;;;18.50;9.43;;;2.90;99.70;;;;;;4973277;28;20492;-70
2021/01/31 04:33:46;;;;;;;18.13;9.00;;;2.80;99.70;;;;;;4973417;28;20458;-69
2021/01/31 04:36:12;;;;;;;19.57;10.17;;;3.00;99.70;;;;;;4973287;28;20498;-70
2021/01/31 04:38:38;;;;;;;18.40;8.67;;;2.80;99.70;;;;;;4972464;28;20466;-70
2021/01/31 04:41:05;;;;;;;18.13;8.77;;;3.10;99.70;;;;;;4971080;28;20459;-69
2021/01/31 04:43:32;;;;;;;16.57;8.17;;;3.00;99.70;;;;;;4973212;28;20443;-69
2021/01/31 04:45:58;;;;;;;17.23;8.33;;;2.90;99.70;;;;;;4973269;28;20971;-69
2021/01/31 04:48:36;;;;;;;18.00;8.70;;;2.80;99.70;;;;;;4972505;28;20981;-69
2021/01/31 04:51:19;;;;;;;17.13;8.70;;;2.80;99.70;;;;;;4973100;28;20578;-69
2021/01/31 04:54:03;;;;;;;17.40;8.43;;;2.90;99.70;;;;;;4973236;28;20458;-70
2021/01/31 04:56:39;;;;;;;19.10;8.70;;;3.10;99.70;;;;;;4973253;28;20447;-69
2021/01/31 04:59:17;;;;;;;17.80;8.90;;;2.90;99.70;;;;;;4971861;28;20454;-69
2021/01/31 05:01:44;;;;;;;18.90;8.60;;;2.80;99.70;;;;;;4972954;28;20475;-69
2021/01/31 05:04:13;;;;;;;17.33;8.37;;;2.80;99.70;;;;;;4973202;28;20455;-69
2021/01/31 05:06:46;;;;;;;17.00;8.70;;;2.70;99.70;;;;;;4972867;28;20910;-69
2021/01/31 05:09:16;;;;;;;16.77;7.93;;;2.70;99.70;;;;;;4973078;28;20454;-69
2021/01/31 05:11:52;;;;;;;16.73;7.80;;;2.80;99.70;;;;;;4972991;28;21003;-69
2021/01/31 05:14:44;;;;;;;15.37;7.47;;;2.80;99.70;;;;;;4973054;28;20443;-69
2021/01/31 05:17:11;;;;;;;16.13;7.90;;;2.80;99.70;;;;;;4972013;28;20510;-69
2021/01/31 05:19:37;;;;;;;16.10;7.97;;;2.80;99.70;;;;;;4972686;28;20451;-69
2021/01/31 05:22:03;;;;;;;18.60;9.13;;;2.80;99.70;;;;;;4972696;28;20443;-68
2021/01/31 05:24:30;;;;;;;18.70;8.30;;;2.70;99.70;;;;;;4972765;28;20452;-69
2021/01/31 05:26:59;;;;;;;15.77;8.30;;;2.90;99.70;;;;;;4971723;28;20443;-70
2021/01/31 05:29:31;;;;;;;15.30;7.80;;;2.90;99.70;;;;;;4972593;28;20822;-70
2021/01/31 05:32:03;;;;;;;15.03;7.50;;;2.90;99.70;;;;;;4972362;28;20992;-69
2021/01/31 05:34:39;;;;;;;13.90;7.00;;;2.90;99.70;;;;;;4972408;28;20901;-69
2021/01/31 05:37:08;;;;;;;14.33;7.80;;;2.80;99.70;;;;;;4971302;28;20953;-69
2021/01/31 05:39:40;;;;;;;15.27;7.73;;;2.80;99.70;;;;;;4970125;28;20451;-69
2021/01/31 05:42:09;;;;;;;15.40;7.37;;;2.80;99.70;;;;;;4972316;28;20470;-70
2021/01/31 05:44:36;;;;;;;13.13;6.77;;;2.80;99.70;;;;;;4972244;28;20451;-70
2021/01/31 05:47:17;;;;;;;14.67;7.67;;;2.80;99.70;;;;;;4971146;28;20454;-70
2021/01/31 05:49:45;;;;;;;12.53;6.70;;;2.80;99.70;;;;;;4971989;28;20541;-69
2021/01/31 05:52:35;;;;;;;15.63;7.40;;;2.80;99.70;;;;;;4971972;28;20454;-69
2021/01/31 05:55:15;;;;;;;16.63;7.40;;;2.80;99.70;;;;;;4971912;28;20451;-69
2021/01/31 05:57:41;;;;;;;15.77;7.40;;;2.80;99.70;;;;;;4971161;28;20447;-69
2021/01/31 06:00:22;;;;;;;15.73;7.33;;;2.80;99.70;;;;;;4971792;28;20464;-69
2021/01/31 06:02:59;;;;;;;14.50;7.20;;;2.90;99.70;;;;;;4971988;28;20874;-69
2021/01/31 06:05:25;;;;;;;16.47;7.60;;;2.90;99.70;;;;;;4971737;28;20451;-68
2021/01/31 06:08:00;;;;;;;16.00;7.67;;;2.80;99.70;;;;;;4970928;28;20443;-69
2021/01/31 06:10:27;;;;;;;15.70;7.80;;;2.80;99.70;;;;;;4971681;28;20493;-70
2021/01/31 06:13:05;;;;;;;13.20;7.03;;;3.10;99.70;;;;;;4971552;28;20447;-69
2021/01/31 06:15:38;;;;;;;14.80;7.60;;;3.00;99.70;;;;;;4971674;28;20455;-69
2021/01/31 06:18:14;;;;;;;16.30;7.97;;;3.00;99.70;;;;;;4970929;28;20455;-69
2021/01/31 06:20:42;;;;;;;14.10;7.10;;;2.80;99.70;;;;;;4971583;28;20466;-69
2021/01/31 06:23:19;;;;;;;14.50;7.60;;;2.90;99.70;;;;;;4971572;28;20448;-69
2021/01/31 06:25:45;;;;;;;14.43;6.60;;;2.90;99.70;;;;;;4971834;28;20543;-69
2021/01/31 06:28:21;;;;;;;15.57;7.20;;;2.90;99.70;;;;;;4970720;28;20447;-69
2021/01/31 06:30:59;;;;;;;15.17;7.50;;;2.80;99.70;;;;;;4994370;23;20581;-70
2021/01/31 06:33:25;;;;;;;15.47;7.23;;;2.90;99.70;;;;;;4971578;28;20447;-70
2021/01/31 06:36:01;;;;;;;16.37;7.57;;;2.90;99.70;;;;;;4971312;28;21011;-71
2021/01/31 06:38:34;;;;;;;16.13;8.30;;;3.00;99.70;;;;;;4970726;28;20454;-70
2021/01/31 06:41:18;;;;;;;14.97;7.73;;;2.90;99.70;;;;;;4969356;28;20459;-70
2021/01/31 06:43:57;;;;;;;14.73;7.07;;;2.90;99.70;;;;;;4971503;28;20462;-70
2021/01/31 06:46:33;;;;;;;15.20;7.43;;;2.90;99.70;;;;;;4971507;28;20454;-70
2021/01/31 06:49:08;;;;;;;13.30;7.33;;;2.90;99.70;;;;;;4970247;28;20454;-71
2021/01/31 06:52:01;;;;;;;17.33;8.27;;;2.90;99.70;;;;;;4971079;28;20534;-70
2021/01/31 06:54:48;;;;;;;13.97;7.20;;;2.90;99.70;;;;;;4971337;28;20462;-70
2021/01/31 06:57:33;;;;;;;12.70;7.13;;;2.90;99.70;;;;;;4970378;28;20447;-71
2021/01/31 07:00:16;;;;;;;15.27;7.40;;;2.90;99.70;;;;;;4971408;28;20447;-70
2021/01/31 07:03:10;;;;;;;16.80;7.70;;;2.90;99.70;;;;;;4971191;28;20451;-70
2021/01/31 07:05:52;;;;;;;14.87;7.30;;;3.00;99.70;;;;;;4971086;28;20459;-70
2021/01/31 07:08:45;;;;;;;15.10;7.07;;;2.90;99.70;;;;;;4970285;28;20536;-70
2021/01/31 07:11:37;;;;;;;14.50;7.17;;;2.90;99.70;;;;;;4962876;28;20495;-70
2021/01/31 07:14:24;;;;;;;15.20;7.20;;;2.90;99.70;;;;;;4952264;28;20458;-71
2021/01/31 07:16:57;;;;;;;15.00;7.17;;;2.90;99.70;;;;;;4970195;28;20447;-70
2021/01/31 07:19:30;;;;;;;16.20;7.37;;;2.80;99.70;;;;;;4970978;28;20443;-70
2021/01/31 07:22:01;;;;;;;15.40;7.80;;;2.80;99.70;;;;;;4970972;28;20530;-70
2021/01/31 07:24:35;;;;;;;15.07;7.70;;;2.90;99.70;;;;;;4974437;28;20439;-70
2021/01/31 07:27:06;;;;;;;15.00;7.50;;;2.90;99.70;;;;;;4973798;28;20940;-70
2021/01/31 07:29:40;;;;;;;14.13;7.23;;;2.90;99.70;;;;;;4974481;28;20474;-70
2021/01/31 07:32:13;;;;;;;15.27;7.97;;;2.90;99.70;;;;;;4974426;28;20531;-70
2021/01/31 07:34:46;;;;;;;17.13;7.60;;;2.90;99.70;;;;;;4974451;28;20451;-70
2021/01/31 07:37:15;;;;;;;15.40;7.43;;;2.90;99.70;;;;;;4973582;28;20479;-71
2021/01/31 07:39:53;;;;;;;14.87;7.80;;;2.90;99.70;;;;;;4972344;28;20538;-70
2021/01/31 07:42:20;;;;;;;13.20;7.03;;;3.00;99.70;;;;;;4974192;28;20474;-70
2021/01/31 07:44:49;;;;;;;15.87;7.43;;;2.90;99.70;;;;;;4974220;28;20456;-70
2021/01/31 07:47:21;;;;;;;14.87;7.83;;;2.90;99.70;;;;;;4973518;28;20451;-70
2021/01/31 07:50:11;;;;;;;16.67;8.10;;;2.80;99.70;;;;;;4974162;28;20447;-71
2021/01/31 07:52:52;;;;;;;14.80;7.77;;;2.80;99.70;;;;;;4974201;28;20956;-70
2021/01/31 07:55:28;;;;;;;17.83;8.07;;;2.80;99.70;;;;;;4974042;28;21028;-70
2021/01/31 07:58:11;;;;;;;15.77;7.63;;;3.10;99.70;;;;;;4973208;28;20443;-70
2021/01/31 08:00:41;;;;;;;20.07;9.67;;;3.00;99.70;;;;;;4974140;28;20455;-69
2021/01/31 08:03:24;;;;;;;18.40;8.67;;;3.00;99.70;;;;;;4973874;28;20487;-71
2021/01/31 08:05:56;;;;;;;17.37;8.50;;;3.00;99.70;;;;;;4974021;28;20482;-71
2021/01/31 08:08:39;;;;;;;14.33;7.63;;;3.00;99.70;;;;;;4973189;28;20451;-71
2021/01/31 08:11:09;;;;;;;16.70;7.73;;;2.90;99.70;;;;;;4973622;28;20487;-68
2021/01/31 08:13:41;;;;;;;17.20;8.80;;;2.90;99.70;;;;;;4973712;28;20447;-70
2021/01/31 08:16:47;;;;;;;15.20;8.47;;;2.90;99.70;;;;;;4973888;28;20451;-70
2021/01/31 08:19:27;;;;;;;16.70;8.07;;;3.00;99.70;;;;;;4973647;28;20447;-71
2021/01/31 08:21:57;;;;;;;16.40;8.70;;;3.10;99.70;;;;;;4973591;28;20467;-71
2021/01/31 08:24:58;;;;;;;15.40;8.47;;;3.10;99.70;;;;;;4973665;28;20454;-71
2021/01/31 08:27:46;;;;;;;18.00;8.77;;;3.10;99.70;;;;;;4973081;28;20443;-71
2021/01/31 08:30:16;;;;;;;16.40;8.63;;;3.10;99.70;;;;;;4973249;28;20530;-71
2021/01/31 08:33:20;;;;;;;16.10;8.90;;;3.10;99.70;;;;;;4973420;28;20448;-70
2021/01/31 08:36:02;;;;;;;19.00;8.90;;;3.10;99.70;;;;;;4972510;28;20501;-72
2021/01/31 08:38:35;;;;;;;19.27;8.87;;;3.20;99.70;;;;;;4970084;28;20448;-69
2021/01/31 08:41:33;;;;;;;19.57;9.30;;;3.10;99.70;;;;;;4966757;28;20505;-71
2021/01/31 08:44:20;;;;;;;19.30;9.23;;;3.10;99.70;;;;;;4957988;28;20451;-71
2021/01/31 08:46:57;;;;;;;18.40;9.00;;;3.10;99.70;;;;;;4968219;28;20454;-70
2021/01/31 08:49:23;;;;;;;17.70;8.90;;;3.20;99.70;;;;;;4971226;28;20514;-70
2021/01/31 08:51:57;;;;;;;16.70;8.87;;;3.30;99.70;;;;;;4971043;28;20934;-71
2021/01/31 08:54:24;;;;;;;22.03;10.27;;;3.40;99.70;;;;;;4971052;28;20453;-71
2021/01/31 08:56:53;;;;;;;18.83;9.40;;;3.30;99.70;;;;;;4970309;28;20455;-70
2021/01/31 08:59:21;;;;;;;18.03;9.50;;;3.30;99.70;;;;;;4971366;28;20872;-71
2021/01/31 09:01:51;;;;;;;20.77;10.33;;;3.20;99.70;;;;;;4968752;28;21039;-71
2021/01/31 09:04:20;;;;;;;19.37;9.63;;;3.30;99.70;;;;;;4970787;28;20925;-71
2021/01/31 09:06:48;;;;;;;20.13;10.33;;;3.20;99.70;;;;;;4970544;28;20481;-70
2021/01/31 09:09:19;;;;;;;24.33;10.77;;;3.10;99.70;;;;;;4970968;28;20801;-70
2021/01/31 09:11:49;;;;;;;17.30;8.50;;;3.30;99.70;;;;;;4971095;28;20870;-71
2021/01/31 09:14:19;;;;;;;22.43;10.00;;;3.30;99.70;;;;;;4970362;28;20446;-69
2021/01/31 09:16:46;;;;;;;16.90;9.20;;;3.30;99.70;;;;;;4967689;28;20439;-71
2021/01/31 09:19:22;;;;;;;20.70;9.50;;;3.40;99.70;;;;;;4970642;28;20937;-71
2021/01/31 09:21:51;;;;;;;22.60;10.67;;;3.50;99.70;;;;;;4968228;28;20552;-72
2021/01/31 09:24:20;;;;;;;16.93;8.90;;;3.50;99.70;;;;;;4970808;28;20456;-72
2021/01/31 09:26:51;;;;;;;22.03;10.43;;;3.50;99.70;;;;;;4964012;28;20458;-68
2021/01/31 09:29:22;;;;;;;19.20;8.77;;;3.50;99.70;;;;;;4970047;28;20519;-71
2021/01/31 09:31:54;;;;;;;22.73;10.40;;;3.60;99.70;;;;;;4969731;28;20577;-70
2021/01/31 09:34:24;;;;;;;19.73;9.30;;;3.70;99.70;;;;;;4968023;28;20467;-70
2021/01/31 09:37:05;;;;;;;22.23;10.27;;;3.60;99.70;;;;;;4966449;28;20459;-71
2021/01/31 09:39:33;;;;;;;22.80;10.00;;;3.60;99.70;;;;;;4966011;28;21003;-71
2021/01/31 09:42:01;;;;;;;22.03;10.90;;;3.50;99.70;;;;;;4968727;28;20482;-71
2021/01/31 09:44:28;;;;;;;22.53;10.80;;;3.40;99.70;;;;;;4969545;28;20440;-71
2021/01/31 09:46:54;;;;;;;20.90;9.93;;;3.50;99.70;;;;;;4966989;28;20954;-71
2021/01/31 09:49:27;;;;;;;23.93;11.07;;;3.50;99.70;;;;;;4970010;28;20459;-71
2021/01/31 09:51:54;;;;;;;20.93;10.40;;;3.50;99.70;;;;;;4969592;28;20897;-69
2021/01/31 09:54:22;;;;;;;23.27;10.80;;;3.50;99.70;;;;;;4969750;28;20475;-71
2021/01/31 09:56:53;;;;;;;25.23;11.07;;;3.60;99.70;;;;;;4969523;28;20853;-71
2021/01/31 09:59:23;;;;;;;23.53;10.77;;;3.70;99.70;;;;;;4970825;28;20550;-70
2021/01/31 10:01:50;;;;;;;20.93;9.50;;;3.60;99.70;;;;;;4968801;28;20471;-71
2021/01/31 10:04:26;;;;;;;20.67;10.00;;;3.60;99.70;;;;;;4970617;28;20459;-70
2021/01/31 10:06:59;;;;;;;20.90;9.77;;;3.60;99.70;;;;;;4969279;28;20462;-71
2021/01/31 10:09:33;;;;;;;26.03;11.30;;;3.70;99.70;;;;;;4970685;28;20443;-70
2021/01/31 10:12:15;;;;;;;22.83;10.20;;;3.70;99.70;;;;;;4970740;28;20880;-71
2021/01/31 10:14:44;;;;;;;19.30;10.30;;;3.70;99.70;;;;;;4970666;28;20990;-71
2021/01/31 10:17:15;;;;;;;22.10;9.90;;;3.80;99.70;;;;;;4969305;28;20524;-70
2021/01/31 10:19:42;;;;;;;22.87;9.67;;;3.80;99.70;;;;;;4967392;28;20470;-70
2021/01/31 10:22:18;;;;;;;22.40;10.20;;;3.80;99.70;;;;;;4967647;28;20495;-71
2021/01/31 10:24:49;;;;;;;21.20;9.63;;;3.90;99.70;;;;;;4963966;28;20463;-70
2021/01/31 10:27:24;;;;;;;22.40;9.93;;;3.90;99.70;;;;;;4967532;28;20480;-71
2021/01/31 10:29:52;;;;;;;22.77;10.23;;;3.90;99.70;;;;;;4968605;28;20537;-71
2021/01/31 10:32:21;;;;;;;24.33;10.70;;;3.80;99.70;;;;;;4968845;28;20824;-71
2021/01/31 10:34:48;;;;;;;23.23;9.93;;;3.70;99.70;;;;;;4967869;28;20448;-70
2021/01/31 10:37:18;;;;;;;22.03;9.73;;;3.90;99.70;;;;;;4965989;28;20451;-71
2021/01/31 10:39:46;;;;;;;22.23;10.40;;;4.00;99.70;;;;;;4966551;28;20641;-71
2021/01/31 10:42:12;;;;;;;21.47;9.90;;;4.10;99.70;;;;;;4967577;28;20814;-71
2021/01/31 10:44:38;;;;;;;22.63;10.30;;;4.10;99.70;;;;;;4967225;28;20486;-70
2021/01/31 10:47:05;;;;;;;21.23;10.60;;;4.10;99.70;;;;;;4967535;28;20475;-70
2021/01/31 10:49:31;;;;;;;23.63;10.47;;;4.20;99.70;;;;;;4967507;28;20454;-69
2021/01/31 10:51:57;;;;;;;24.37;11.27;;;4.20;99.70;;;;;;4967803;28;20497;-70
2021/01/31 10:54:24;;;;;;;21.47;9.90;;;4.20;99.70;;;;;;4968078;28;20451;-70
2021/01/31 10:56:50;;;;;;;24.10;10.33;;;4.30;99.70;;;;;;4948291;28;20473;-70
2021/01/31 10:59:17;;;;;;;23.90;11.70;;;4.40;99.70;;;;;;4966350;28;20797;-70
2021/01/31 11:01:44;;;;;;;23.40;9.60;;;4.60;99.70;;;;;;4971756;28;20592;-70
2021/01/31 11:04:11;;;;;;;20.40;10.07;;;4.60;99.70;;;;;;4971869;28;20876;-70
2021/01/31 11:06:37;;;;;;;22.00;10.23;;;4.60;99.70;;;;;;4971496;28;20467;-70
2021/01/31 11:09:04;;;;;;;21.20;9.80;;;4.40;99.70;;;;;;4971339;28;20455;-70
2021/01/31 11:11:31;;;;;;;20.23;9.90;;;4.40;99.70;;;;;;4971180;28;20895;-70
2021/01/31 11:13:58;;;;;;;20.57;9.20;;;4.50;99.70;;;;;;4972037;28;20466;-70
2021/01/31 11:16:24;;;;;;;20.70;10.00;;;4.40;99.70;;;;;;4971523;28;20450;-70
2021/01/31 11:18:50;;;;;;;22.07;9.90;;;4.40;99.70;;;;;;4971189;28;20850;-71
2021/01/31 11:21:20;;;;;;;19.63;10.10;;;4.30;99.70;;;;;;4971739;28;20470;-70
2021/01/31 11:23:46;;;;;;;19.83;10.20;;;4.40;99.70;;;;;;4971730;28;20485;-70
2021/01/31 11:26:13;;;;;;;20.50;9.73;;;4.30;99.70;;;;;;4971674;28;20952;-70
2021/01/31 11:28:41;;;;;;;18.63;9.53;;;4.40;99.70;;;;;;4973130;28;20455;-70
2021/01/31 11:31:07;;;;;;;19.97;9.20;;;4.30;99.70;;;;;;4973503;28;20502;-69
2021/01/31 11:33:33;;;;;;;23.20;10.63;;;4.30;99.70;;;;;;4973730;28;20447;-70
2021/01/31 11:35:59;;;;;;;20.37;10.20;;;4.30;99.70;;;;;;4973586;28;20443;-70
2021/01/31 11:38:26;;;;;;;21.57;10.30;;;4.50;99.70;;;;;;4973114;28;20443;-70
2021/01/31 11:40:52;;;;;;;20.63;9.53;;;4.40;99.70;;;;;;4971953;28;20471;-71
2021/01/31 11:43:19;;;;;;;19.30;9.70;;;4.50;99.70;;;;;;4973699;28;20451;-70
2021/01/31 11:45:46;;;;;;;22.30;9.87;;;4.50;99.70;;;;;;4973595;28;20703;-70
2021/01/31 11:48:12;;;;;;;20.50;10.23;;;4.70;99.70;;;;;;4972987;28;20439;-70
2021/01/31 11:50:38;;;;;;;20.90;9.77;;;4.70;99.70;;;;;;4973150;28;20486;-70
2021/01/31 11:53:05;;;;;;;19.67;9.67;;;4.90;99.70;;;;;;4973676;28;20497;-70
2021/01/31 11:55:31;;;;;;;21.93;10.30;;;4.90;99.70;;;;;;4973887;28;20451;-70
2021/01/31 11:57:57;;;;;;;20.40;9.93;;;4.90;99.70;;;;;;4972570;28;20463;-70
2021/01/31 12:00:24;;;;;;;22.07;10.27;;;4.80;99.70;;;;;;4973437;28;20447;-70
2021/01/31 12:02:52;;;;;;;20.03;9.80;;;4.80;99.70;;;;;;4972964;28;20478;-70
2021/01/31 12:05:20;;;;;;;18.60;9.33;;;4.80;99.70;;;;;;4973267;28;20461;-70
2021/01/31 12:07:46;;;;;;;20.47;9.80;;;5.00;99.70;;;;;;4972146;28;20862;-70
2021/01/31 12:10:15;;;;;;;18.20;9.07;;;5.10;99.70;;;;;;4972790;28;20454;-70
2021/01/31 12:12:41;;;;;;;19.50;9.43;;;5.20;99.70;;;;;;4972847;28;20443;-70
2021/01/31 12:15:11;;;;;;;20.57;9.60;;;5.10;99.70;;;;;;4972738;28;20455;-70
2021/01/31 12:17:38;;;;;;;19.30;9.17;;;5.20;99.70;;;;;;4972200;28;20450;-70
2021/01/31 12:20:06;;;;;;;19.70;9.53;;;5.20;99.70;;;;;;4972588;28;20550;-70
2021/01/31 12:22:33;;;;;;;18.10;9.10;;;5.20;99.70;;;;;;4973029;28;20451;-70
2021/01/31 12:24:59;;;;;;;19.73;9.90;;;5.20;99.70;;;;;;4972830;28;20965;-70
2021/01/31 12:27:26;;;;;;;18.30;9.43;;;5.20;99.70;;;;;;4972185;28;20450;-70
2021/01/31 12:29:52;;;;;;;21.87;10.80;;;5.10;99.70;;;;;;4972845;28;20980;-70
2021/01/31 12:32:19;;;;;;;22.13;10.50;;;4.90;99.70;;;;;;4971581;28;20483;-70
2021/01/31 12:34:45;;;;;;;22.60;10.80;;;4.90;99.70;;;;;;4971593;28;20451;-70
2021/01/31 12:37:13;;;;;;;19.40;9.83;;;5.10;99.70;;;;;;4970937;28;20512;-70
2021/01/31 12:39:39;;;;;;;20.93;11.00;;;5.10;99.70;;;;;;4970645;28;20470;-70
2021/01/31 12:42:06;;;;;;;21.90;10.90;;;5.00;99.70;;;;;;4971347;28;20478;-70
2021/01/31 12:44:32;;;;;;;21.90;11.00;;;4.90;99.70;;;;;;4971620;28;20875;-70
2021/01/31 12:46:58;;;;;;;20.60;10.27;;;4.80;99.70;;;;;;4970392;28;20452;-70
2021/01/31 12:49:24;;;;;;;24.03;11.23;;;4.80;99.70;;;;;;4971452;28;20454;-70
2021/01/31 12:51:51;;;;;;;21.87;10.70;;;4.80;99.70;;;;;;4971051;28;20500;-70
2021/01/31 12:54:20;;;;;;;25.40;11.30;;;4.80;99.70;;;;;;4971449;28;20452;-70
2021/01/31 12:56:46;;;;;;;21.90;9.90;;;4.90;99.70;;;;;;4970257;28;20494;-67
2021/01/31 12:59:13;;;;;;;26.90;11.43;;;4.80;99.70;;;;;;4970855;28;20462;-69
2021/01/31 13:01:40;;;;;;;22.07;10.13;;;4.60;99.70;;;;;;4971135;28;20475;-67
2021/01/31 13:04:06;;;;;;;23.80;11.03;;;4.80;99.70;;;;;;4971310;28;20530;-70
2021/01/31 13:06:32;;;;;;;21.57;10.57;;;4.80;99.70;;;;;;4971567;28;20825;-70